Prior Lake, MN (55372)

12:47 AM CST on November 26, 2014 (GMT -0600)
KMNPRIOR9 | Change Station
CLOSE
Current Station
Personal Weather Station
Location: Credit River, MN
Elevation: 935 ft
Nearby Weather Stations
Active Advisory: Winter Weather Advisory

Elev 935 ft 44.70 °N, 93.39 °W | Updated 57 seconds ago

Mostly Cloudy
Mostly Cloudy
22.4 °F
Feels Like 14 °F
N
7.0
Wind Variable Wind from East
Gusts 8.0 mph

Today
High -- | Low -- °F
--% Chance of Precip.
Yesterday
High -- | Low -- °F
Precip. -- in
7:24 AM 4:36 PM
Waxing Crescent, 17% visible
Pressure 30.05 in
Visibility 10.0 miles
Clouds Few 4900 ft
Mostly Cloudy 6000 ft
Windchill 14 °F
Dew Point -20 °F
Humidity 14%
Rainfall 0.00 in
Snow Depth Not available.
UV 0.0 out of 12
Pollen .10 out of 12
Air Quality Not available.
Flu Activity Not available.
METAR KFCM 260553Z AUTO 12008KT 10SM FEW049 BKN060 M04/M08 A3001 RMK AO2 SLP176 T10441083 11039 21050 410391128 55001

More Conditions Fewer Conditions

Pressure 30.05 in
Visibility 10.0 miles
Clouds Few 4900 ft
Mostly Cloudy 6000 ft
Windchill 14 °F
Dew Point -20 °F
Humidity 14%
Rainfall 0.00 in
Snow Depth Not available.
UV 0.0 out of 12
Pollen .10 out of 12
Air Quality Not available.
Flu Activity Not available.
METAR KFCM 260553Z AUTO 12008KT 10SM FEW049 BKN060 M04/M08 A3001 RMK AO2 SLP176 T10441083 11039 21050 410391128 55001

More Conditions Fewer Conditions

10-Day Weather Forecast

Almanac

Astronomy

Nov. 26, 2014 Rise Set
Actual Time
Civil Twilight
Nautical Twilight
Astronomical Twilight
Moon
Length of Visible Light
Length of Day
Tomorrow will be .
, % of the Moon is Illuminated

Today's Extremes

State Highs State Lows

Community

WunderPhotos

Upload Photos

1,773,691 photos uploaded!

WunderBlogs® & News

Nearby

Air Quality

  Air Quality AQ Index Pollutant
Not available.

Snow Depth

Station Depth Elevation

Earthquake Activity

City Distance Mag. Time & Date
Minimum magnitude displayed is 2.5.

Coastal Water Temperatures

Place Temperature

Nearby Weather Stations